Time;durP1;ratioP1;P1;durP2;ratioP2;P2;SDS_P1;SDS_P2;PMS_P1;PMS_P2;Temp;Humidity;BMP_temperature;BMP_pressure;BME280_temperature;BME280_humidity;BME280_pressure;Samples;Min_cycle;Max_cycle;Signal;HPM_P1;HPM_P2
2022/12/29 00:01:27;;;;;;;1.67;1.43;;;3.10;93.60;;;;;;5055676;28;20210;-82
2022/12/29 00:03:53;;;;;;;3.23;2.17;;;3.10;93.50;;;;;;5061258;28;20205;-83
2022/12/29 00:06:22;;;;;;;2.63;1.77;;;3.20;93.40;;;;;;5058512;28;20201;-82
2022/12/29 00:08:48;;;;;;;1.77;1.60;;;3.30;93.20;;;;;;5060667;28;20221;-83
2022/12/29 00:11:17;;;;;;;1.67;1.57;;;3.20;93.10;;;;;;5061140;28;20208;-82
2022/12/29 00:16:30;;;;;;;2.60;1.50;;;3.40;92.00;;;;;;5064108;28;20466;-83
2022/12/29 00:18:56;;;;;;;2.13;1.70;;;3.50;91.70;;;;;;5058606;28;20220;-82
2022/12/29 00:35:27;;;;;;;1.77;1.40;;;3.50;90.70;;;;;;5058006;28;20664;-82
2022/12/29 00:46:10;;;;;;;1.67;1.33;;;3.50;91.00;;;;;;5061195;28;20223;-83
2022/12/29 00:51:21;;;;;;;1.47;1.37;;;3.40;91.30;;;;;;5060555;28;20207;-82
2022/12/29 00:53:49;;;;;;;2.30;1.10;;;3.40;91.30;;;;;;5065459;28;20687;-82
2022/12/29 00:56:16;;;;;;;1.40;1.30;;;3.40;91.70;;;;;;5066481;28;20222;-83
2022/12/29 00:58:43;;;;;;;1.90;1.37;;;3.30;91.70;;;;;;5066829;28;20210;-83
2022/12/29 01:01:10;;;;;;;2.53;1.50;;;3.30;91.80;;;;;;5065007;28;20193;-83
2022/12/29 01:03:38;;;;;;;1.73;1.23;;;3.30;91.80;;;;;;5063931;28;20205;-82
2022/12/29 01:06:07;;;;;;;1.30;1.20;;;3.40;90.80;;;;;;5064273;28;20197;-82
2022/12/29 01:08:35;;;;;;;2.00;1.20;;;3.30;91.10;;;;;;5067251;28;20221;-82
2022/12/29 01:11:03;;;;;;;2.10;1.40;;;3.40;90.80;;;;;;5062939;28;20232;-82
2022/12/29 01:13:30;;;;;;;1.60;1.30;;;3.40;90.60;;;;;;5062269;28;20681;-82
2022/12/29 01:15:57;;;;;;;1.40;1.23;;;3.30;90.90;;;;;;5064383;28;20206;-82
2022/12/29 01:18:26;;;;;;;1.40;1.20;;;3.20;91.20;;;;;;5061134;28;20200;-82
2022/12/29 01:20:59;;;;;;;1.37;1.27;;;3.20;91.40;;;;;;5066292;28;20206;-82
2022/12/29 01:23:26;;;;;;;1.67;1.40;;;3.30;91.20;;;;;;5057266;28;20603;-82
2022/12/29 01:25:53;;;;;;;2.60;1.37;;;3.20;91.20;;;;;;5061876;28;20204;-82
2022/12/29 01:28:21;;;;;;;1.97;1.53;;;3.20;91.50;;;;;;5062344;28;20212;-83
2022/12/29 01:30:48;;;;;;;1.70;1.27;;;3.20;91.20;;;;;;5061505;28;20673;-83
2022/12/29 01:33:15;;;;;;;1.83;1.23;;;3.10;91.60;;;;;;5069154;28;20193;-82
2022/12/29 01:35:42;;;;;;;2.50;1.37;;;3.20;91.50;;;;;;5061795;28;20223;-82
2022/12/29 01:38:08;;;;;;;1.27;1.13;;;3.20;91.50;;;;;;5067749;28;20546;-82
2022/12/29 01:40:44;;;;;;;1.50;1.40;;;3.20;91.00;;;;;;5060286;28;20594;-82
2022/12/29 01:43:13;;;;;;;1.37;1.27;;;3.20;91.10;;;;;;5066991;28;20204;-83
2022/12/29 01:45:44;;;;;;;1.30;1.10;;;3.30;90.90;;;;;;5057715;28;20210;-82
2022/12/29 01:48:12;;;;;;;1.30;1.20;;;3.30;90.90;;;;;;5066491;28;20202;-82
2022/12/29 01:50:42;;;;;;;2.20;1.37;;;3.40;90.70;;;;;;5057980;28;20240;-82
2022/12/29 01:53:12;;;;;;;1.50;1.40;;;3.40;90.90;;;;;;5066470;28;20592;-83
2022/12/29 01:55:43;;;;;;;3.17;1.13;;;3.40;91.30;;;;;;5058189;28;20198;-82
2022/12/29 01:58:13;;;;;;;2.93;1.20;;;3.30;91.50;;;;;;5058737;28;20201;-82
2022/12/29 02:00:41;;;;;;;2.00;1.30;;;3.30;91.90;;;;;;5062737;28;20209;-82
2022/12/29 02:03:09;;;;;;;1.90;1.30;;;3.20;92.00;;;;;;5062090;28;20194;-82
2022/12/29 02:05:42;;;;;;;1.53;1.40;;;3.20;92.10;;;;;;5056839;28;20209;-82
2022/12/29 02:08:10;;;;;;;1.50;1.40;;;3.20;92.00;;;;;;5062867;28;20220;-82
2022/12/29 02:10:37;;;;;;;1.47;1.30;;;3.30;91.80;;;;;;5066283;28;20311;-82
2022/12/29 02:13:04;;;;;;;2.03;1.40;;;3.30;91.20;;;;;;5062115;28;20540;-82
2022/12/29 02:15:50;;;;;;;1.57;1.40;;;3.30;91.60;;;;;;5067613;28;20202;-82
2022/12/29 02:18:31;;;;;;;1.83;1.20;;;3.40;90.90;;;;;;5064399;28;20571;-82
2022/12/29 02:21:46;;;;;;;1.57;1.20;;;3.40;90.40;;;;;;5062928;28;20202;-82
2022/12/29 02:24:40;;;;;;;1.33;1.17;;;3.50;88.60;;;;;;5062084;28;20213;-82
2022/12/29 02:27:39;;;;;;;1.73;1.33;;;3.50;89.40;;;;;;5059695;28;20201;-82
2022/12/29 02:30:12;;;;;;;3.47;1.20;;;3.50;89.40;;;;;;5057458;28;20224;-82
2022/12/29 02:32:53;;;;;;;1.73;1.50;;;3.50;88.10;;;;;;5066140;28;20213;-83
2022/12/29 02:35:30;;;;;;;1.77;1.33;;;3.50;89.70;;;;;;5062876;28;20197;-82
2022/12/29 02:38:06;;;;;;;1.50;1.23;;;3.50;89.30;;;;;;5059903;28;20650;-83
2022/12/29 02:40:40;;;;;;;1.90;1.40;;;3.60;89.30;;;;;;5060753;28;20205;-82
2022/12/29 02:43:20;;;;;;;2.83;1.20;;;3.70;88.20;;;;;;5059531;28;20208;-82
2022/12/29 02:45:50;;;;;;;1.33;1.23;;;3.80;85.50;;;;;;5057267;28;20201;-82
2022/12/29 02:48:25;;;;;;;1.40;1.30;;;3.90;84.10;;;;;;5060762;28;20197;-82
2022/12/29 02:50:56;;;;;;;1.37;1.27;;;3.90;86.50;;;;;;5056843;28;20232;-82
2022/12/29 02:56:06;;;;;;;1.00;1.00;;;3.90;85.70;;;;;;5052781;28;20244;-82
2022/12/29 02:58:32;;;;;;;1.10;1.00;;;3.90;82.50;;;;;;5055390;28;20209;-82
2022/12/29 03:01:14;;;;;;;1.50;1.10;;;3.90;82.70;;;;;;5059207;28;20206;-84
2022/12/29 03:03:52;;;;;;;0.90;0.90;;;3.90;83.30;;;;;;5059673;28;20232;-83
2022/12/29 03:06:32;;;;;;;1.03;1.00;;;4.00;81.10;;;;;;5057145;28;20200;-83
2022/12/29 03:09:11;;;;;;;1.57;1.10;;;4.00;80.90;;;;;;5059535;28;20649;-82
2022/12/29 03:17:27;;;;;;;1.10;1.00;;;4.30;73.80;;;;;;5059477;28;20575;-82
2022/12/29 03:20:05;;;;;;;1.00;0.73;;;4.50;69.20;;;;;;5055504;28;20680;-84
2022/12/29 03:22:37;;;;;;;1.30;1.20;;;4.60;67.80;;;;;;5059008;28;20221;-84
2022/12/29 03:25:10;;;;;;;1.10;1.00;;;4.80;62.30;;;;;;5057764;28;20194;-84
2022/12/29 03:27:41;;;;;;;1.10;1.00;;;4.90;59.60;;;;;;5056300;28;20568;-84
2022/12/29 03:30:09;;;;;;;0.90;0.90;;;5.00;58.10;;;;;;5057282;28;20316;-84
2022/12/29 03:32:41;;;;;;;1.20;1.10;;;5.00;58.20;;;;;;5059550;28;20209;-84
2022/12/29 03:35:14;;;;;;;2.13;1.93;;;5.10;57.60;;;;;;5061148;28;20649;-85
2022/12/29 03:37:45;;;;;;;1.10;1.00;;;5.10;58.70;;;;;;5054690;28;20209;-84
2022/12/29 03:40:12;;;;;;;0.80;0.80;;;5.20;57.30;;;;;;5057296;28;20216;-84
2022/12/29 03:42:41;;;;;;;0.93;0.93;;;5.30;53.00;;;;;;5061737;28;20240;-85
2022/12/29 03:45:10;;;;;;;0.97;0.97;;;5.40;51.90;;;;;;5058326;28;20580;-84
2022/12/29 03:47:36;;;;;;;1.20;0.90;;;5.40;53.40;;;;;;5059716;28;20201;-84
2022/12/29 03:50:04;;;;;;;2.30;0.80;;;5.50;50.00;;;;;;5056963;28;20218;-85
2022/12/29 03:52:32;;;;;;;1.57;0.97;;;5.50;49.50;;;;;;5057912;28;20224;-84
2022/12/29 03:54:59;;;;;;;0.80;0.80;;;5.60;48.00;;;;;;5060732;28;20205;-84
2022/12/29 03:57:26;;;;;;;2.27;0.93;;;5.60;48.70;;;;;;5056776;28;20209;-85
2022/12/29 03:59:55;;;;;;;0.80;0.80;;;5.60;49.80;;;;;;5059588;28;20209;-84
2022/12/29 04:02:23;;;;;;;1.00;1.00;;;5.70;46.30;;;;;;5054303;28;20198;-85
2022/12/29 04:04:50;;;;;;;1.25;1.00;;;5.70;46.70;;;;;;5061234;28;20204;-85
2022/12/29 04:07:17;;;;;;;1.03;0.80;;;5.80;47.40;;;;;;5055172;28;20198;-84
2022/12/29 04:09:45;;;;;;;1.05;0.95;;;5.90;45.00;;;;;;5058694;28;20237;-84
2022/12/29 04:12:13;;;;;;;1.00;0.90;;;5.90;45.00;;;;;;5056077;28;20683;-84
2022/12/29 04:14:40;;;;;;;0.83;0.80;;;6.00;43.80;;;;;;5057934;28;20657;-84
2022/12/29 04:17:07;;;;;;;1.00;0.90;;;6.00;41.80;;;;;;5053926;28;20216;-84
2022/12/29 04:19:33;;;;;;;4.10;1.13;;;6.00;41.60;;;;;;5052655;28;20214;-84
2022/12/29 04:22:00;;;;;;;1.00;1.00;;;6.10;40.10;;;;;;5060977;28;20197;-84
2022/12/29 04:24:27;;;;;;;1.23;1.05;;;6.20;41.00;;;;;;5061379;28;20669;-85
2022/12/29 04:26:55;;;;;;;0.90;0.90;;;6.10;40.40;;;;;;5062325;28;20196;-84
2022/12/29 04:29:22;;;;;;;2.30;1.00;;;6.10;41.70;;;;;;5062987;28;20201;-84
2022/12/29 04:31:49;;;;;;;1.00;0.90;;;6.10;42.30;;;;;;5062371;28;20201;-85
2022/12/29 04:34:16;;;;;;;1.10;1.00;;;6.10;41.90;;;;;;5061272;28;20193;-85
2022/12/29 04:36:43;;;;;;;1.17;1.08;;;6.10;43.70;;;;;;5061014;28;20560;-84
2022/12/29 04:39:10;;;;;;;2.03;1.08;;;6.20;40.60;;;;;;5059426;28;20569;-85
2022/12/29 04:41:36;;;;;;;1.17;1.00;;;6.20;40.30;;;;;;5055386;28;20194;-84
2022/12/29 04:44:05;;;;;;;0.90;0.90;;;6.20;42.70;;;;;;5060145;28;20209;-84
2022/12/29 04:46:32;;;;;;;1.30;1.20;;;6.20;41.20;;;;;;5059552;28;20206;-84
2022/12/29 04:49:00;;;;;;;1.45;1.15;;;6.20;40.40;;;;;;5059982;28;20202;-84
2022/12/29 04:51:27;;;;;;;1.33;1.13;;;6.20;40.80;;;;;;5061706;28;20218;-84
2022/12/29 04:53:54;;;;;;;1.30;1.10;;;6.20;41.60;;;;;;5057550;28;20202;-84
2022/12/29 04:56:20;;;;;;;1.35;1.20;;;6.30;40.30;;;;;;5065418;28;20193;-84
2022/12/29 04:58:48;;;;;;;2.28;1.13;;;6.30;40.50;;;;;;5066255;28;20195;-84
2022/12/29 05:01:16;;;;;;;1.20;1.10;;;6.30;40.00;;;;;;5060064;28;20248;-84
2022/12/29 05:03:43;;;;;;;1.00;1.00;;;6.30;40.00;;;;;;5058335;28;20202;-85
2022/12/29 05:06:10;;;;;;;1.00;0.98;;;6.30;41.00;;;;;;5057653;28;20202;-84
2022/12/29 05:08:36;;;;;;;1.10;1.00;;;6.30;39.80;;;;;;5063319;28;20200;-84
2022/12/29 05:11:03;;;;;;;1.10;1.00;;;6.30;41.10;;;;;;5060754;28;20233;-84
2022/12/29 05:13:30;;;;;;;1.50;1.00;;;6.40;38.70;;;;;;5061382;28;20557;-84
2022/12/29 05:15:57;;;;;;;2.03;0.90;;;6.40;40.90;;;;;;5061172;28;20198;-84
2022/12/29 05:18:25;;;;;;;1.05;1.00;;;6.40;38.70;;;;;;5061039;28;20205;-84
2022/12/29 05:20:52;;;;;;;0.85;0.85;;;6.50;39.40;;;;;;5058272;28;20210;-84
2022/12/29 05:23:19;;;;;;;1.20;1.10;;;6.40;40.40;;;;;;5065376;28;20225;-84
2022/12/29 05:25:46;;;;;;;0.95;0.95;;;6.40;40.50;;;;;;5062292;28;20208;-85
2022/12/29 05:28:13;;;;;;;1.15;1.00;;;6.40;40.20;;;;;;5060584;28;20205;-84
2022/12/29 05:30:40;;;;;;;1.88;1.10;;;6.40;39.70;;;;;;5062169;28;20569;-84
2022/12/29 05:33:07;;;;;;;1.20;1.10;;;6.40;40.00;;;;;;5060401;28;20201;-84
2022/12/29 05:35:35;;;;;;;1.10;0.95;;;6.40;41.90;;;;;;5060990;28;20209;-84
2022/12/29 05:38:01;;;;;;;1.63;1.30;;;6.50;40.60;;;;;;5057519;28;20210;-84
2022/12/29 05:40:28;;;;;;;2.17;1.00;;;6.40;44.20;;;;;;5061515;28;20684;-84
2022/12/29 05:42:55;;;;;;;1.10;1.00;;;6.40;43.30;;;;;;5060908;28;20201;-84
2022/12/29 05:45:22;;;;;;;1.30;1.20;;;6.40;43.40;;;;;;5058553;28;20209;-84
2022/12/29 05:47:49;;;;;;;2.08;1.23;;;6.30;43.90;;;;;;5062838;28;20669;-85
2022/12/29 05:50:16;;;;;;;1.48;1.30;;;6.30;45.30;;;;;;5067133;28;20697;-84
2022/12/29 05:52:44;;;;;;;1.42;1.33;;;6.30;45.30;;;;;;5062377;28;20650;-84
2022/12/29 05:55:11;;;;;;;1.80;1.30;;;6.30;45.40;;;;;;5060706;28;20650;-84
2022/12/29 05:57:38;;;;;;;1.00;1.00;;;6.30;43.30;;;;;;5060423;28;20201;-84
2022/12/29 06:00:06;;;;;;;1.00;1.00;;;6.30;45.30;;;;;;5062611;28;20201;-84
2022/12/29 06:02:33;;;;;;;1.10;1.00;;;6.20;51.10;;;;;;5058359;28;20198;-84
2022/12/29 06:05:00;;;;;;;0.93;0.93;;;6.20;50.30;;;;;;5060817;28;20212;-84
2022/12/29 06:07:27;;;;;;;6.13;1.30;;;6.10;52.20;;;;;;5059750;28;20201;-84
2022/12/29 06:09:55;;;;;;;3.33;1.20;;;6.20;51.00;;;;;;5062969;28;20229;-84
2022/12/29 06:12:22;;;;;;;1.40;1.20;;;6.10;50.90;;;;;;5057048;28;20194;-84
2022/12/29 06:14:48;;;;;;;1.67;1.25;;;6.10;50.30;;;;;;5061109;28;20208;-84
2022/12/29 06:17:15;;;;;;;1.80;1.20;;;6.10;50.00;;;;;;5059545;28;20205;-84
2022/12/29 06:19:43;;;;;;;3.55;1.17;;;6.10;49.70;;;;;;5057813;28;20221;-84
2022/12/29 06:22:14;;;;;;;1.27;1.17;;;6.20;50.20;;;;;;5057531;28;20243;-85
2022/12/29 06:24:41;;;;;;;1.95;1.30;;;6.20;50.80;;;;;;5063180;28;20197;-84
2022/12/29 06:27:09;;;;;;;1.58;1.17;;;6.10;51.00;;;;;;5060794;28;20213;-84
2022/12/29 06:29:36;;;;;;;1.50;1.30;;;6.10;53.00;;;;;;5058801;28;20225;-85
2022/12/29 06:32:04;;;;;;;1.48;1.27;;;6.00;52.40;;;;;;5062780;28;20689;-84
2022/12/29 06:34:31;;;;;;;1.35;1.25;;;6.00;52.30;;;;;;5059334;28;20206;-84
2022/12/29 06:36:58;;;;;;;1.65;1.33;;;6.00;51.30;;;;;;5059945;28;20283;-84
2022/12/29 06:39:25;;;;;;;2.85;1.40;;;6.00;52.60;;;;;;5059980;28;20201;-84
2022/12/29 06:41:53;;;;;;;1.33;1.23;;;6.00;51.10;;;;;;5063675;28;20201;-84
2022/12/29 06:44:22;;;;;;;1.77;1.40;;;6.00;50.70;;;;;;5058551;28;20209;-85
2022/12/29 06:46:49;;;;;;;6.35;1.13;;;6.00;50.50;;;;;;5060286;28;20201;-84
2022/12/29 06:49:16;;;;;;;2.47;1.30;;;6.00;52.60;;;;;;5059563;28;20205;-84
2022/12/29 06:51:43;;;;;;;1.48;1.23;;;6.00;53.30;;;;;;5061638;28;20243;-85
2022/12/29 06:54:10;;;;;;;3.25;1.30;;;6.00;52.70;;;;;;5058641;28;20207;-85
2022/12/29 06:56:37;;;;;;;1.77;1.40;;;6.10;52.30;;;;;;5062179;28;20874;-84
2022/12/29 06:59:05;;;;;;;1.48;1.38;;;6.10;53.00;;;;;;5055927;28;20649;-84
2022/12/29 07:01:33;;;;;;;2.53;1.45;;;6.10;53.70;;;;;;5060610;28;20202;-85
2022/12/29 07:04:00;;;;;;;1.50;1.25;;;6.00;53.80;;;;;;5063167;28;20200;-85
2022/12/29 07:06:26;;;;;;;2.22;1.52;;;6.10;55.30;;;;;;5072043;28;20217;-84
2022/12/29 07:08:54;;;;;;;1.77;1.67;;;6.10;53.30;;;;;;5063350;28;20208;-85
2022/12/29 07:11:22;;;;;;;4.03;1.83;;;6.10;47.20;;;;;;5059257;28;20225;-84
2022/12/29 07:13:49;;;;;;;1.25;1.15;;;6.20;46.00;;;;;;5058219;28;20194;-84
2022/12/29 07:16:16;;;;;;;3.17;1.42;;;6.20;45.30;;;;;;5055299;28;20220;-85
2022/12/29 07:18:44;;;;;;;1.40;1.25;;;6.20;46.80;;;;;;5058697;28;20204;-84
2022/12/29 07:21:11;;;;;;;1.65;1.30;;;6.20;45.30;;;;;;5059374;28;20202;-84
2022/12/29 07:23:38;;;;;;;1.63;1.52;;;6.20;45.30;;;;;;5058831;28;20221;-84
2022/12/29 07:26:07;;;;;;;1.25;1.15;;;6.20;45.60;;;;;;5057032;28;20201;-84
2022/12/29 07:28:35;;;;;;;2.45;1.50;;;6.30;46.80;;;;;;5059511;28;20220;-84
2022/12/29 07:31:02;;;;;;;1.75;1.30;;;6.40;46.50;;;;;;5057413;28;20226;-84
2022/12/29 07:33:30;;;;;;;1.70;1.42;;;6.50;43.10;;;;;;5059786;28;20197;-84
2022/12/29 07:35:59;;;;;;;2.00;1.40;;;6.50;44.90;;;;;;5057831;28;20205;-84
2022/12/29 07:38:26;;;;;;;1.85;1.70;;;6.50;43.10;;;;;;5058835;28;20198;-84
2022/12/29 07:40:56;;;;;;;2.10;1.40;;;6.50;42.90;;;;;;5060067;28;20196;-84
2022/12/29 07:43:23;;;;;;;1.40;1.30;;;6.60;40.00;;;;;;5059067;28;20205;-84
2022/12/29 07:45:50;;;;;;;1.42;1.23;;;6.60;40.40;;;;;;5058858;28;20650;-84
2022/12/29 07:48:17;;;;;;;4.68;1.58;;;6.60;41.50;;;;;;5053601;28;20198;-84
2022/12/29 07:50:44;;;;;;;1.90;1.38;;;6.50;41.50;;;;;;5055164;28;20233;-84
2022/12/29 07:53:12;;;;;;;1.80;1.35;;;6.60;39.00;;;;;;5061047;28;20198;-84
2022/12/29 07:55:39;;;;;;;1.83;1.50;;;6.70;39.40;;;;;;5052138;28;20567;-84
2022/12/29 07:58:06;;;;;;;1.50;1.40;;;6.70;40.80;;;;;;5059384;28;20198;-84
2022/12/29 08:00:33;;;;;;;1.40;1.23;;;6.60;38.60;;;;;;5055994;28;20206;-84
2022/12/29 08:03:03;;;;;;;1.50;1.40;;;6.70;39.20;;;;;;5064710;28;20258;-85
2022/12/29 08:05:31;;;;;;;5.60;1.55;;;6.90;38.70;;;;;;5062899;28;20211;-84
2022/12/29 08:07:58;;;;;;;1.30;1.20;;;7.10;36.20;;;;;;5054406;28;20212;-84
2022/12/29 08:10:26;;;;;;;3.22;1.25;;;7.30;34.70;;;;;;5061865;28;20243;-84
2022/12/29 08:12:53;;;;;;;1.52;1.20;;;7.50;34.30;;;;;;5056816;28;20220;-84
2022/12/29 08:15:20;;;;;;;2.65;1.20;;;7.50;31.70;;;;;;5065213;28;20770;-84
2022/12/29 08:17:47;;;;;;;1.83;1.40;;;7.60;33.00;;;;;;5055282;28;20564;-85
2022/12/29 08:20:14;;;;;;;1.23;1.13;;;7.60;31.20;;;;;;5056650;28;20741;-84
2022/12/29 08:22:41;;;;;;;1.30;1.20;;;7.60;32.20;;;;;;5055305;28;20230;-84
2022/12/29 08:25:09;;;;;;;1.50;1.40;;;7.70;32.50;;;;;;5060427;28;20201;-84
2022/12/29 08:27:37;;;;;;;2.63;1.40;;;7.70;31.70;;;;;;5057671;28;20205;-84
2022/12/29 08:30:04;;;;;;;2.40;1.65;;;7.90;31.60;;;;;;5059014;28;20676;-84
2022/12/29 08:32:31;;;;;;;1.55;1.45;;;7.90;29.80;;;;;;5059084;28;20229;-84
2022/12/29 08:34:58;;;;;;;1.60;1.48;;;8.10;30.70;;;;;;5060323;28;20733;-85
2022/12/29 08:37:25;;;;;;;1.33;1.23;;;8.00;31.40;;;;;;5061760;28;20633;-84
2022/12/29 08:39:52;;;;;;;1.40;1.30;;;8.00;30.00;;;;;;5059276;28;20204;-85
2022/12/29 08:42:19;;;;;;;1.52;1.30;;;8.00;29.80;;;;;;5062819;28;20208;-84
2022/12/29 08:44:47;;;;;;;1.40;1.30;;;8.10;30.50;;;;;;5060034;28;20198;-85
2022/12/29 08:47:14;;;;;;;1.25;1.15;;;8.30;30.30;;;;;;5054303;28;20670;-84
2022/12/29 08:49:41;;;;;;;2.10;1.30;;;8.70;30.00;;;;;;5056966;28;20202;-85
2022/12/29 08:52:09;;;;;;;2.13;1.40;;;9.10;29.30;;;;;;5065458;28;20225;-85
2022/12/29 08:54:35;;;;;;;2.13;1.60;;;9.50;24.70;;;;;;5056942;28;20214;-85
2022/12/29 08:57:03;;;;;;;1.83;1.35;;;9.90;25.00;;;;;;5059041;28;20209;-84
2022/12/29 08:59:36;;;;;;;1.50;1.40;;;10.30;23.90;;;;;;5055388;28;20209;-85
2022/12/29 09:02:05;;;;;;;1.77;1.30;;;10.60;24.10;;;;;;5062268;28;20201;-85
2022/12/29 09:04:32;;;;;;;2.47;1.38;;;11.20;21.40;;;;;;5062818;28;20646;-85
2022/12/29 09:06:59;;;;;;;3.90;1.67;;;11.40;22.00;;;;;;5061521;28;20527;-85
2022/12/29 09:09:25;;;;;;;1.92;1.30;;;11.70;20.10;;;;;;5053451;28;20230;-85
2022/12/29 09:11:52;;;;;;;1.98;1.60;;;12.00;18.90;;;;;;5065858;28;20556;-85
2022/12/29 09:14:19;;;;;;;1.90;1.50;;;11.80;19.70;;;;;;5057601;28;20202;-85
2022/12/29 09:19:32;;;;;;;1.50;1.40;;;12.10;18.70;;;;;;5061049;28;20302;-85
2022/12/29 09:21:59;;;;;;;1.70;1.60;;;12.60;17.60;;;;;;5062298;28;20708;-85
2022/12/29 09:24:25;;;;;;;1.40;1.30;;;13.00;18.10;;;;;;5058302;28;20208;-85
2022/12/29 09:26:52;;;;;;;1.30;1.20;;;13.00;15.50;;;;;;5060887;28;20201;-85
2022/12/29 09:29:19;;;;;;;1.77;1.40;;;12.90;15.70;;;;;;5064658;28;20691;-85
2022/12/29 09:31:46;;;;;;;1.45;1.30;;;12.70;15.90;;;;;;5060215;28;20225;-85
2022/12/29 09:34:13;;;;;;;1.92;1.50;;;12.40;15.40;;;;;;5057370;28;20676;-85
2022/12/29 09:36:41;;;;;;;2.88;1.20;;;12.30;16.30;;;;;;5059392;28;20212;-85
2022/12/29 09:39:09;;;;;;;1.40;1.30;;;12.10;17.40;;;;;;5063355;28;20201;-84
2022/12/29 09:41:40;;;;;;;1.63;1.50;;;11.90;16.90;;;;;;5059945;28;20228;-85
2022/12/29 09:44:18;;;;;;;2.03;1.30;;;12.20;15.80;;;;;;5060641;28;20201;-85
2022/12/29 09:46:49;;;;;;;1.42;1.33;;;12.40;17.00;;;;;;5060306;28;20651;-85
2022/12/29 09:49:24;;;;;;;2.63;1.38;;;13.10;15.50;;;;;;5060655;28;20212;-85
2022/12/29 09:51:55;;;;;;;1.45;1.30;;;13.00;14.60;;;;;;5060212;28;20259;-85
2022/12/29 09:54:42;;;;;;;1.60;1.50;;;12.70;16.90;;;;;;5061397;28;20201;-85
2022/12/29 09:57:19;;;;;;;1.83;1.40;;;12.40;15.40;;;;;;5058941;28;20198;-85
2022/12/29 09:59:47;;;;;;;1.45;1.30;;;12.10;16.50;;;;;;5061755;28;20205;-85
2022/12/29 10:02:29;;;;;;;1.38;1.27;;;11.80;17.30;;;;;;5060915;28;20550;-85
2022/12/29 10:04:55;;;;;;;2.05;1.35;;;11.70;17.20;;;;;;5059604;28;20577;-85
2022/12/29 10:07:34;;;;;;;1.50;1.40;;;11.60;16.60;;;;;;5061784;28;20198;-84
2022/12/29 10:10:17;;;;;;;8.18;1.20;;;11.60;16.70;;;;;;5063268;28;20229;-85
2022/12/29 10:12:59;;;;;;;1.25;1.15;;;11.40;16.60;;;;;;5071638;28;20237;-85
2022/12/29 10:15:41;;;;;;;2.15;0.98;;;11.40;17.20;;;;;;5063565;28;20201;-85
2022/12/29 10:18:20;;;;;;;1.38;1.27;;;11.20;17.40;;;;;;5073285;28;20207;-85
2022/12/29 10:20:54;;;;;;;1.40;1.08;;;11.00;18.40;;;;;;5065081;28;20881;-85
2022/12/29 10:23:28;;;;;;;1.30;1.20;;;11.00;17.30;;;;;;5060916;28;20275;-85
2022/12/29 10:25:57;;;;;;;1.10;1.05;;;11.00;17.80;;;;;;5055889;28;20198;-85
2022/12/29 10:28:30;;;;;;;2.63;1.20;;;11.00;17.50;;;;;;5068623;28;20201;-84
2022/12/29 10:30:59;;;;;;;2.13;1.40;;;11.00;19.00;;;;;;5062922;28;20204;-84
2022/12/29 10:33:33;;;;;;;2.25;1.23;;;10.90;18.00;;;;;;5061474;28;20229;-85
2022/12/29 10:36:03;;;;;;;1.77;1.45;;;11.00;17.80;;;;;;5056108;28;20202;-84
2022/12/29 10:38:38;;;;;;;1.40;1.30;;;11.00;18.00;;;;;;5061006;28;20692;-85
2022/12/29 10:41:14;;;;;;;1.30;1.20;;;11.00;18.80;;;;;;5060003;28;20197;-84
2022/12/29 10:43:46;;;;;;;1.25;1.15;;;11.10;17.60;;;;;;5056514;28;20684;-85
2022/12/29 10:46:17;;;;;;;1.48;1.20;;;11.00;18.60;;;;;;5060104;28;20208;-85
2022/12/29 10:48:46;;;;;;;1.70;1.40;;;11.00;17.90;;;;;;5063906;28;20281;-85
2022/12/29 10:51:20;;;;;;;1.85;1.30;;;11.00;18.70;;;;;;5061641;28;20237;-85
2022/12/29 10:53:54;;;;;;;2.42;1.20;;;11.00;18.10;;;;;;5063754;28;20205;-84
2022/12/29 10:56:32;;;;;;;1.55;1.45;;;11.20;17.90;;;;;;5065696;28;20212;-85
2022/12/29 10:59:07;;;;;;;3.75;1.23;;;11.40;16.80;;;;;;5056312;28;20274;-85
2022/12/29 11:01:40;;;;;;;4.50;1.50;;;11.50;17.20;;;;;;5054357;28;20564;-85
2022/12/29 11:04:23;;;;;;;4.32;1.30;;;11.60;17.00;;;;;;5069468;28;20217;-85
2022/12/29 11:06:51;;;;;;;1.75;1.30;;;11.70;16.90;;;;;;5063998;28;20240;-85
2022/12/29 11:09:27;;;;;;;1.75;1.40;;;12.00;16.60;;;;;;5055620;28;20709;-85
2022/12/29 11:11:54;;;;;;;2.00;1.40;;;12.10;15.90;;;;;;5060475;28;20225;-85
2022/12/29 11:14:29;;;;;;;1.58;1.30;;;12.20;15.60;;;;;;5059326;28;20195;-85
2022/12/29 11:17:02;;;;;;;1.50;1.40;;;12.40;16.40;;;;;;5059409;28;20315;-85
2022/12/29 11:19:31;;;;;;;1.73;1.35;;;12.40;14.80;;;;;;5071892;28;20211;-85
2022/12/29 11:22:14;;;;;;;2.35;1.40;;;12.50;15.10;;;;;;5072032;28;20279;-85
2022/12/29 11:27:28;;;;;;;1.23;1.10;;;12.70;14.50;;;;;;5067362;28;20212;-85
2022/12/29 11:29:55;;;;;;;1.63;1.40;;;12.80;15.80;;;;;;5066232;28;20233;-85
2022/12/29 11:32:33;;;;;;;1.40;1.25;;;12.90;14.40;;;;;;5068268;28;20228;-85
2022/12/29 11:35:05;;;;;;;3.28;1.20;;;12.90;14.50;;;;;;5062806;28;20201;-84
2022/12/29 11:37:39;;;;;;;1.23;1.13;;;13.00;14.20;;;;;;5052349;28;20661;-85
2022/12/29 11:40:17;;;;;;;1.75;1.40;;;13.00;14.00;;;;;;5067589;28;20228;-85
2022/12/29 11:42:54;;;;;;;1.50;1.20;;;13.10;15.10;;;;;;5052472;28;20212;-84
2022/12/29 11:45:23;;;;;;;1.73;1.45;;;13.10;15.10;;;;;;5054293;28;20280;-85
2022/12/29 11:47:53;;;;;;;2.08;1.25;;;13.10;16.40;;;;;;5059361;28;20297;-84
2022/12/29 11:50:23;;;;;;;1.50;1.40;;;13.20;15.20;;;;;;5062305;28;20205;-85
2022/12/29 11:52:58;;;;;;;2.05;1.30;;;13.20;15.40;;;;;;5051051;28;20619;-84
2022/12/29 11:55:28;;;;;;;3.28;1.30;;;13.20;14.20;;;;;;5066779;28;20193;-84
2022/12/29 11:57:58;;;;;;;2.58;1.23;;;13.10;14.00;;;;;;5059478;28;20210;-84
2022/12/29 12:00:26;;;;;;;1.30;1.20;;;13.20;15.00;;;;;;5057817;28;20202;-85
2022/12/29 12:02:59;;;;;;;1.48;1.30;;;13.10;15.10;;;;;;5055583;28;20215;-84
2022/12/29 12:05:32;;;;;;;1.42;1.33;;;13.10;14.80;;;;;;5067284;28;20251;-85
2022/12/29 12:08:11;;;;;;;1.98;1.38;;;13.10;14.90;;;;;;5059159;28;20212;-85
2022/12/29 12:11:12;;;;;;;3.15;1.38;;;13.10;14.70;;;;;;5053707;28;20238;-85
2022/12/29 12:17:08;;;;;;;1.30;1.20;;;12.90;14.00;;;;;;5028072;28;20209;-85
2022/12/29 12:19:44;;;;;;;1.20;1.10;;;12.90;14.20;;;;;;5043648;28;20202;-85
2022/12/29 12:22:32;;;;;;;1.30;1.13;;;12.80;14.90;;;;;;5043477;28;20205;-85
2022/12/29 12:25:27;;;;;;;1.23;1.13;;;12.80;14.30;;;;;;5032284;28;20293;-85
2022/12/29 12:28:18;;;;;;;1.70;1.40;;;12.80;14.90;;;;;;5039844;28;20205;-85
2022/12/29 12:30:49;;;;;;;1.77;1.25;;;12.70;15.30;;;;;;5045261;28;20207;-85
2022/12/29 12:33:25;;;;;;;2.95;1.40;;;12.80;15.60;;;;;;5034993;28;20218;-85
2022/12/29 12:36:04;;;;;;;1.38;1.27;;;12.80;14.70;;;;;;5033797;28;20205;-84
2022/12/29 12:38:43;;;;;;;1.50;1.40;;;12.90;15.10;;;;;;5038270;28;20642;-85
2022/12/29 12:41:12;;;;;;;1.88;1.30;;;12.80;16.80;;;;;;5047182;28;20222;-85
2022/12/29 12:43:45;;;;;;;1.40;1.30;;;12.90;15.70;;;;;;5045884;28;20296;-85
2022/12/29 12:46:47;;;;;;;2.92;1.40;;;12.80;15.70;;;;;;5038617;28;20206;-84
2022/12/29 12:49:41;;;;;;;1.30;1.20;;;12.90;15.70;;;;;;5039793;28;20212;-85
2022/12/29 12:52:22;;;;;;;1.58;1.33;;;12.80;16.50;;;;;;5042706;28;20636;-85
2022/12/29 12:55:08;;;;;;;1.80;1.30;;;12.90;17.20;;;;;;5043370;28;20283;-85
2022/12/29 12:57:47;;;;;;;2.40;1.27;;;12.90;16.00;;;;;;5046132;28;20230;-85
2022/12/29 13:00:22;;;;;;;1.55;1.42;;;12.80;16.50;;;;;;5042040;28;20631;-85
2022/12/29 13:03:04;;;;;;;1.40;1.30;;;12.70;16.90;;;;;;5047980;28;20204;-85
2022/12/29 13:05:50;;;;;;;2.55;1.20;;;12.70;17.70;;;;;;5038843;28;20205;-85
2022/12/29 13:08:50;;;;;;;1.35;1.13;;;12.60;17.50;;;;;;5039253;28;20209;-86
2022/12/29 13:11:26;;;;;;;2.80;1.50;;;12.70;17.00;;;;;;5041306;28;20640;-85
2022/12/29 13:14:07;;;;;;;1.30;1.20;;;12.70;17.60;;;;;;5039995;28;20677;-85
2022/12/29 13:16:46;;;;;;;1.58;1.20;;;12.60;17.50;;;;;;5047619;28;20750;-85
2022/12/29 13:19:24;;;;;;;1.70;1.20;;;12.60;17.60;;;;;;5038283;28;20201;-85
2022/12/29 13:22:03;;;;;;;2.50;1.50;;;12.50;18.40;;;;;;5048697;28;20253;-85
2022/12/29 13:24:35;;;;;;;2.35;1.35;;;12.40;18.00;;;;;;5039390;28;20230;-85
2022/12/29 13:27:11;;;;;;;1.30;1.20;;;12.50;17.50;;;;;;5041124;28;20201;-85
2022/12/29 13:29:48;;;;;;;1.40;1.23;;;12.40;18.30;;;;;;5041636;28;20206;-85
2022/12/29 13:32:30;;;;;;;2.40;1.10;;;12.40;18.70;;;;;;5051165;28;20649;-85
2022/12/29 13:35:11;;;;;;;2.40;1.40;;;12.40;18.60;;;;;;5053790;28;20292;-85
2022/12/29 13:37:47;;;;;;;1.92;1.50;;;12.30;19.00;;;;;;5052468;28;20198;-85
2022/12/29 13:40:17;;;;;;;1.50;1.30;;;12.30;19.10;;;;;;5052389;28;20213;-85
2022/12/29 13:42:46;;;;;;;1.38;1.27;;;12.30;19.50;;;;;;5042584;28;20205;-84
2022/12/29 13:45:18;;;;;;;1.92;1.30;;;12.20;19.70;;;;;;5041797;28;20654;-85
2022/12/29 13:47:57;;;;;;;1.50;1.40;;;12.10;19.40;;;;;;5037358;28;20203;-85
2022/12/29 13:50:27;;;;;;;2.47;1.60;;;12.20;19.30;;;;;;5043648;28;20198;-85
2022/12/29 13:53:02;;;;;;;1.58;1.40;;;12.20;19.40;;;;;;5048064;28;20222;-85
2022/12/29 13:55:36;;;;;;;2.88;1.27;;;12.10;19.30;;;;;;5043116;28;20379;-85
2022/12/29 13:58:14;;;;;;;2.00;1.50;;;12.10;18.90;;;;;;5037852;28;20217;-85